sensor_id;sensor_type;location;lat;lon;timestamp;pressure;altitude;pressure_sealevel;temperature
14666;BMP280;7420;53.574;10.040;2023-04-04T00:00:11;54235.41;;;-136.87
14666;BMP280;7420;53.574;10.040;2023-04-04T00:02:36;54229.28;;;-136.87
14666;BMP280;7420;53.574;10.040;2023-04-04T00:05:03;54231.31;;;-136.87
14666;BMP280;7420;53.574;10.040;2023-04-04T00:07:29;54233.38;;;-136.87
14666;BMP280;7420;53.574;10.040;2023-04-04T00:09:54;54233.38;;;-136.87
14666;BMP280;7420;53.574;10.040;2023-04-04T00:12:20;54233.38;;;-136.87
14666;BMP280;7420;53.574;10.040;2023-04-04T00:14:45;54233.38;;;-136.87
14666;BMP280;7420;53.574;10.040;2023-04-04T00:17:11;54233.38;;;-136.87
14666;BMP280;7420;53.574;10.040;2023-04-04T00:19:36;54231.31;;;-136.87
14666;BMP280;7420;53.574;10.040;2023-04-04T00:22:02;54231.31;;;-136.87
14666;BMP280;7420;53.574;10.040;2023-04-04T00:24:27;54231.31;;;-136.87
14666;BMP280;7420;53.574;10.040;2023-04-04T00:26:53;54235.41;;;-136.87
14666;BMP280;7420;53.574;10.040;2023-04-04T00:29:18;54233.38;;;-136.87
14666;BMP280;7420;53.574;10.040;2023-04-04T00:31:44;54231.31;;;-136.87
14666;BMP280;7420;53.574;10.040;2023-04-04T00:34:09;54231.31;;;-136.87
14666;BMP280;7420;53.574;10.040;2023-04-04T00:36:35;54233.38;;;-136.87
14666;BMP280;7420;53.574;10.040;2023-04-04T00:39:01;54233.38;;;-136.87
14666;BMP280;7420;53.574;10.040;2023-04-04T00:41:26;54235.41;;;-136.87
14666;BMP280;7420;53.574;10.040;2023-04-04T00:43:53;54229.28;;;-136.87
14666;BMP280;7420;53.574;10.040;2023-04-04T00:46:19;54233.38;;;-136.87
14666;BMP280;7420;53.574;10.040;2023-04-04T00:48:45;54231.31;;;-136.87
14666;BMP280;7420;53.574;10.040;2023-04-04T00:51:12;54233.38;;;-136.87
14666;BMP280;7420;53.574;10.040;2023-04-04T00:53:37;54231.31;;;-136.87
14666;BMP280;7420;53.574;10.040;2023-04-04T00:56:03;54231.31;;;-136.87
14666;BMP280;7420;53.574;10.040;2023-04-04T00:58:28;54231.31;;;-136.87
14666;BMP280;7420;53.574;10.040;2023-04-04T01:00:54;54229.28;;;-136.87
14666;BMP280;7420;53.574;10.040;2023-04-04T01:03:19;54231.31;;;-136.87
14666;BMP280;7420;53.574;10.040;2023-04-04T01:05:45;54233.38;;;-136.87
14666;BMP280;7420;53.574;10.040;2023-04-04T01:08:11;54229.28;;;-136.87
14666;BMP280;7420;53.574;10.040;2023-04-04T01:10:36;54233.38;;;-136.87
14666;BMP280;7420;53.574;10.040;2023-04-04T01:13:03;54231.31;;;-136.87
14666;BMP280;7420;53.574;10.040;2023-04-04T01:15:29;54233.38;;;-136.87
14666;BMP280;7420;53.574;10.040;2023-04-04T01:17:58;54233.38;;;-136.87
14666;BMP280;7420;53.574;10.040;2023-04-04T01:20:25;54229.28;;;-136.87
14666;BMP280;7420;53.574;10.040;2023-04-04T01:22:52;54233.38;;;-136.87
14666;BMP280;7420;53.574;10.040;2023-04-04T01:25:29;54233.38;;;-136.87
14666;BMP280;7420;53.574;10.040;2023-04-04T01:27:57;54229.28;;;-136.87
14666;BMP280;7420;53.574;10.040;2023-04-04T01:30:24;54233.38;;;-136.87
14666;BMP280;7420;53.574;10.040;2023-04-04T01:32:56;54227.25;;;-136.87
14666;BMP280;7420;53.574;10.040;2023-04-04T01:35:42;54233.38;;;-136.87
14666;BMP280;7420;53.574;10.040;2023-04-04T01:38:26;54231.31;;;-136.87
14666;BMP280;7420;53.574;10.040;2023-04-04T01:41:00;54233.38;;;-136.87
14666;BMP280;7420;53.574;10.040;2023-04-04T01:43:29;54233.38;;;-136.87
14666;BMP280;7420;53.574;10.040;2023-04-04T01:45:54;54233.38;;;-136.87
14666;BMP280;7420;53.574;10.040;2023-04-04T01:48:20;54231.31;;;-136.87
14666;BMP280;7420;53.574;10.040;2023-04-04T01:50:46;54231.31;;;-136.87
14666;BMP280;7420;53.574;10.040;2023-04-04T01:53:11;54229.28;;;-136.87
14666;BMP280;7420;53.574;10.040;2023-04-04T01:55:37;54231.31;;;-136.87
14666;BMP280;7420;53.574;10.040;2023-04-04T01:58:02;54233.38;;;-136.87
14666;BMP280;7420;53.574;10.040;2023-04-04T02:00:27;54233.38;;;-136.87
14666;BMP280;7420;53.574;10.040;2023-04-04T02:02:53;54229.28;;;-136.87
14666;BMP280;7420;53.574;10.040;2023-04-04T02:05:18;54231.31;;;-136.87
14666;BMP280;7420;53.574;10.040;2023-04-04T02:07:47;54233.38;;;-136.87
14666;BMP280;7420;53.574;10.040;2023-04-04T02:10:16;54229.28;;;-136.87
14666;BMP280;7420;53.574;10.040;2023-04-04T02:12:42;54233.38;;;-136.87
14666;BMP280;7420;53.574;10.040;2023-04-04T02:15:07;54233.38;;;-136.87
14666;BMP280;7420;53.574;10.040;2023-04-04T02:17:33;54229.28;;;-136.87
14666;BMP280;7420;53.574;10.040;2023-04-04T02:19:59;54231.31;;;-136.87
14666;BMP280;7420;53.574;10.040;2023-04-04T02:22:25;54233.38;;;-136.87
14666;BMP280;7420;53.574;10.040;2023-04-04T02:24:51;54233.38;;;-136.87
14666;BMP280;7420;53.574;10.040;2023-04-04T02:27:18;54231.31;;;-136.87
14666;BMP280;7420;53.574;10.040;2023-04-04T02:29:43;54233.38;;;-136.87
14666;BMP280;7420;53.574;10.040;2023-04-04T02:32:09;54231.31;;;-136.87
14666;BMP280;7420;53.574;10.040;2023-04-04T02:34:34;54229.28;;;-136.87
14666;BMP280;7420;53.574;10.040;2023-04-04T02:37:00;54233.38;;;-136.87
14666;BMP280;7420;53.574;10.040;2023-04-04T02:39:26;54231.31;;;-136.87
14666;BMP280;7420;53.574;10.040;2023-04-04T02:41:51;54231.31;;;-136.87
14666;BMP280;7420;53.574;10.040;2023-04-04T02:44:17;54229.28;;;-136.87
14666;BMP280;7420;53.574;10.040;2023-04-04T02:46:42;54233.38;;;-136.87
14666;BMP280;7420;53.574;10.040;2023-04-04T02:49:07;54229.28;;;-136.87
14666;BMP280;7420;53.574;10.040;2023-04-04T02:51:33;54229.28;;;-136.87
14666;BMP280;7420;53.574;10.040;2023-04-04T02:53:59;54235.41;;;-136.87
14666;BMP280;7420;53.574;10.040;2023-04-04T02:56:25;54229.28;;;-136.87
14666;BMP280;7420;53.574;10.040;2023-04-04T02:58:50;54233.38;;;-136.87
14666;BMP280;7420;53.574;10.040;2023-04-04T03:01:16;54231.31;;;-136.87
14666;BMP280;7420;53.574;10.040;2023-04-04T03:03:41;54233.38;;;-136.87
14666;BMP280;7420;53.574;10.040;2023-04-04T03:06:07;54229.28;;;-136.87
14666;BMP280;7420;53.574;10.040;2023-04-04T03:08:32;54229.28;;;-136.87
14666;BMP280;7420;53.574;10.040;2023-04-04T03:10:59;54229.28;;;-136.87
14666;BMP280;7420;53.574;10.040;2023-04-04T03:13:25;54233.38;;;-136.87
14666;BMP280;7420;53.574;10.040;2023-04-04T03:16:00;54231.31;;;-136.87
14666;BMP280;7420;53.574;10.040;2023-04-04T03:18:28;54233.38;;;-136.87
14666;BMP280;7420;53.574;10.040;2023-04-04T03:20:53;54229.28;;;-136.87
14666;BMP280;7420;53.574;10.040;2023-04-04T03:23:18;54231.31;;;-136.87
14666;BMP280;7420;53.574;10.040;2023-04-04T03:25:44;54233.38;;;-136.87
14666;BMP280;7420;53.574;10.040;2023-04-04T03:28:10;54229.28;;;-136.87
14666;BMP280;7420;53.574;10.040;2023-04-04T03:30:37;54229.28;;;-136.87
14666;BMP280;7420;53.574;10.040;2023-04-04T03:33:05;54229.28;;;-136.87
14666;BMP280;7420;53.574;10.040;2023-04-04T03:35:40;54233.38;;;-136.87
14666;BMP280;7420;53.574;10.040;2023-04-04T03:38:07;54233.38;;;-136.87
14666;BMP280;7420;53.574;10.040;2023-04-04T03:40:32;54229.28;;;-136.87
14666;BMP280;7420;53.574;10.040;2023-04-04T03:42:58;54233.38;;;-136.87
14666;BMP280;7420;53.574;10.040;2023-04-04T03:45:24;54229.28;;;-136.87
14666;BMP280;7420;53.574;10.040;2023-04-04T03:47:49;54233.38;;;-136.87
14666;BMP280;7420;53.574;10.040;2023-04-04T03:50:15;54233.38;;;-136.87
14666;BMP280;7420;53.574;10.040;2023-04-04T03:52:40;54233.38;;;-136.87
14666;BMP280;7420;53.574;10.040;2023-04-04T03:55:06;54231.31;;;-136.87
14666;BMP280;7420;53.574;10.040;2023-04-04T03:57:32;54231.31;;;-136.87
14666;BMP280;7420;53.574;10.040;2023-04-04T03:59:57;54231.31;;;-136.87
14666;BMP280;7420;53.574;10.040;2023-04-04T04:02:23;54231.31;;;-136.87
14666;BMP280;7420;53.574;10.040;2023-04-04T04:04:48;54231.31;;;-136.87
14666;BMP280;7420;53.574;10.040;2023-04-04T04:07:14;54233.38;;;-136.87
14666;BMP280;7420;53.574;10.040;2023-04-04T04:09:39;54233.38;;;-136.87
14666;BMP280;7420;53.574;10.040;2023-04-04T04:12:05;54231.31;;;-136.87
14666;BMP280;7420;53.574;10.040;2023-04-04T04:14:30;54229.28;;;-136.87
14666;BMP280;7420;53.574;10.040;2023-04-04T04:16:56;54233.38;;;-136.87
14666;BMP280;7420;53.574;10.040;2023-04-04T04:19:21;54231.31;;;-136.87
14666;BMP280;7420;53.574;10.040;2023-04-04T04:21:47;54235.41;;;-136.87
14666;BMP280;7420;53.574;10.040;2023-04-04T04:24:12;54231.31;;;-136.87
14666;BMP280;7420;53.574;10.040;2023-04-04T04:26:37;54229.28;;;-136.87
14666;BMP280;7420;53.574;10.040;2023-04-04T04:29:03;54231.31;;;-136.87
14666;BMP280;7420;53.574;10.040;2023-04-04T04:31:28;54233.38;;;-136.87
14666;BMP280;7420;53.574;10.040;2023-04-04T04:33:53;54231.31;;;-136.87
14666;BMP280;7420;53.574;10.040;2023-04-04T04:36:19;54233.38;;;-136.87
14666;BMP280;7420;53.574;10.040;2023-04-04T04:38:44;54227.25;;;-136.87
14666;BMP280;7420;53.574;10.040;2023-04-04T04:41:10;54231.31;;;-136.87
14666;BMP280;7420;53.574;10.040;2023-04-04T04:43:35;54229.28;;;-136.87
14666;BMP280;7420;53.574;10.040;2023-04-04T04:46:01;54233.38;;;-136.87
14666;BMP280;7420;53.574;10.040;2023-04-04T04:48:26;54227.25;;;-136.87
14666;BMP280;7420;53.574;10.040;2023-04-04T04:50:52;54229.28;;;-136.87
14666;BMP280;7420;53.574;10.040;2023-04-04T04:53:17;54229.28;;;-136.87
14666;BMP280;7420;53.574;10.040;2023-04-04T04:55:44;54229.28;;;-136.87
14666;BMP280;7420;53.574;10.040;2023-04-04T04:58:11;54233.38;;;-136.87
14666;BMP280;7420;53.574;10.040;2023-04-04T05:00:37;54229.28;;;-136.87
14666;BMP280;7420;53.574;10.040;2023-04-04T05:03:03;54231.31;;;-136.87
14666;BMP280;7420;53.574;10.040;2023-04-04T05:05:32;54229.28;;;-136.87
14666;BMP280;7420;53.574;10.040;2023-04-04T05:08:01;54231.31;;;-136.87
14666;BMP280;7420;53.574;10.040;2023-04-04T05:10:28;54229.28;;;-136.87
14666;BMP280;7420;53.574;10.040;2023-04-04T05:12:53;54231.31;;;-136.87
14666;BMP280;7420;53.574;10.040;2023-04-04T05:15:19;54231.31;;;-136.87
14666;BMP280;7420;53.574;10.040;2023-04-04T05:17:46;54229.28;;;-136.87
14666;BMP280;7420;53.574;10.040;2023-04-04T05:20:11;54229.28;;;-136.87
14666;BMP280;7420;53.574;10.040;2023-04-04T05:22:44;54231.31;;;-136.87
14666;BMP280;7420;53.574;10.040;2023-04-04T05:25:10;54231.31;;;-136.87
14666;BMP280;7420;53.574;10.040;2023-04-04T05:27:36;54231.31;;;-136.87
14666;BMP280;7420;53.574;10.040;2023-04-04T05:30:02;54233.38;;;-136.87
14666;BMP280;7420;53.574;10.040;2023-04-04T05:32:27;54231.31;;;-136.87
14666;BMP280;7420;53.574;10.040;2023-04-04T05:34:53;54225.19;;;-136.87
14666;BMP280;7420;53.574;10.040;2023-04-04T05:37:18;54229.28;;;-136.87
14666;BMP280;7420;53.574;10.040;2023-04-04T05:39:44;54233.38;;;-136.87
14666;BMP280;7420;53.574;10.040;2023-04-04T05:42:09;54231.31;;;-136.87
14666;BMP280;7420;53.574;10.040;2023-04-04T05:44:35;54231.31;;;-136.87
14666;BMP280;7420;53.574;10.040;2023-04-04T05:47:01;54229.28;;;-136.87
14666;BMP280;7420;53.574;10.040;2023-04-04T05:49:27;54229.28;;;-136.87
14666;BMP280;7420;53.574;10.040;2023-04-04T05:51:52;54233.38;;;-136.87
14666;BMP280;7420;53.574;10.040;2023-04-04T05:54:20;54233.38;;;-136.87
14666;BMP280;7420;53.574;10.040;2023-04-04T05:56:46;54229.28;;;-136.87
14666;BMP280;7420;53.574;10.040;2023-04-04T05:59:12;54233.38;;;-136.87
14666;BMP280;7420;53.574;10.040;2023-04-04T06:01:37;54227.25;;;-136.87
14666;BMP280;7420;53.574;10.040;2023-04-04T06:04:04;54229.28;;;-136.87
14666;BMP280;7420;53.574;10.040;2023-04-04T06:06:33;54229.28;;;-136.87
14666;BMP280;7420;53.574;10.040;2023-04-04T06:08:59;54231.31;;;-136.87
14666;BMP280;7420;53.574;10.040;2023-04-04T06:11:25;54231.31;;;-136.87
14666;BMP280;7420;53.574;10.040;2023-04-04T06:13:51;54229.28;;;-136.87
14666;BMP280;7420;53.574;10.040;2023-04-04T06:16:19;54233.38;;;-136.87
14666;BMP280;7420;53.574;10.040;2023-04-04T06:18:45;54229.28;;;-136.87
14666;BMP280;7420;53.574;10.040;2023-04-04T06:21:10;54229.28;;;-136.87
14666;BMP280;7420;53.574;10.040;2023-04-04T06:23:37;54229.28;;;-136.87
14666;BMP280;7420;53.574;10.040;2023-04-04T06:26:03;54227.25;;;-136.87
14666;BMP280;7420;53.574;10.040;2023-04-04T06:28:28;54229.28;;;-136.87
14666;BMP280;7420;53.574;10.040;2023-04-04T06:30:53;54229.28;;;-136.87
14666;BMP280;7420;53.574;10.040;2023-04-04T06:33:19;54229.28;;;-136.87
14666;BMP280;7420;53.574;10.040;2023-04-04T06:35:44;54229.28;;;-136.87
14666;BMP280;7420;53.574;10.040;2023-04-04T06:38:09;54229.28;;;-136.87
14666;BMP280;7420;53.574;10.040;2023-04-04T06:40:35;54229.28;;;-136.87
14666;BMP280;7420;53.574;10.040;2023-04-04T06:43:01;54233.38;;;-136.87
14666;BMP280;7420;53.574;10.040;2023-04-04T06:45:27;54229.28;;;-136.87
14666;BMP280;7420;53.574;10.040;2023-04-04T06:47:55;54227.25;;;-136.87
14666;BMP280;7420;53.574;10.040;2023-04-04T06:50:21;54229.28;;;-136.87
14666;BMP280;7420;53.574;10.040;2023-04-04T06:52:47;54229.28;;;-136.87
14666;BMP280;7420;53.574;10.040;2023-04-04T06:55:14;54233.38;;;-136.87
14666;BMP280;7420;53.574;10.040;2023-04-04T06:57:39;54229.28;;;-136.87
14666;BMP280;7420;53.574;10.040;2023-04-04T07:00:05;54229.28;;;-136.87
14666;BMP280;7420;53.574;10.040;2023-04-04T07:02:31;54229.28;;;-136.87
14666;BMP280;7420;53.574;10.040;2023-04-04T07:04:57;54231.31;;;-136.87
14666;BMP280;7420;53.574;10.040;2023-04-04T07:07:22;54229.28;;;-136.87
14666;BMP280;7420;53.574;10.040;2023-04-04T07:09:49;54233.38;;;-136.87
14666;BMP280;7420;53.574;10.040;2023-04-04T07:12:15;54229.28;;;-136.87
14666;BMP280;7420;53.574;10.040;2023-04-04T07:14:40;54227.25;;;-136.87
14666;BMP280;7420;53.574;10.040;2023-04-04T07:17:06;54229.28;;;-136.87
14666;BMP280;7420;53.574;10.040;2023-04-04T07:19:32;54229.28;;;-136.87
14666;BMP280;7420;53.574;10.040;2023-04-04T07:21:57;54227.25;;;-136.87
14666;BMP280;7420;53.574;10.040;2023-04-04T07:24:23;54229.28;;;-136.87
14666;BMP280;7420;53.574;10.040;2023-04-04T07:26:48;54231.31;;;-136.87
14666;BMP280;7420;53.574;10.040;2023-04-04T07:29:13;54233.38;;;-136.87
14666;BMP280;7420;53.574;10.040;2023-04-04T07:31:39;54229.28;;;-136.87
14666;BMP280;7420;53.574;10.040;2023-04-04T07:34:04;54231.31;;;-136.87
14666;BMP280;7420;53.574;10.040;2023-04-04T07:36:30;54229.28;;;-136.87
14666;BMP280;7420;53.574;10.040;2023-04-04T07:38:55;54229.28;;;-136.87
14666;BMP280;7420;53.574;10.040;2023-04-04T07:41:22;54231.31;;;-136.87
14666;BMP280;7420;53.574;10.040;2023-04-04T07:43:48;54233.38;;;-136.87
14666;BMP280;7420;53.574;10.040;2023-04-04T07:46:13;54229.28;;;-136.87
14666;BMP280;7420;53.574;10.040;2023-04-04T07:48:39;54231.31;;;-136.87
14666;BMP280;7420;53.574;10.040;2023-04-04T07:51:04;54227.25;;;-136.87
14666;BMP280;7420;53.574;10.040;2023-04-04T07:53:30;54229.28;;;-136.87
14666;BMP280;7420;53.574;10.040;2023-04-04T07:55:55;54227.25;;;-136.87
14666;BMP280;7420;53.574;10.040;2023-04-04T07:58:21;54229.28;;;-136.87
14666;BMP280;7420;53.574;10.040;2023-04-04T08:00:46;54229.28;;;-136.87
14666;BMP280;7420;53.574;10.040;2023-04-04T08:03:12;54229.28;;;-136.87
14666;BMP280;7420;53.574;10.040;2023-04-04T08:08:03;54229.28;;;-136.87
14666;BMP280;7420;53.574;10.040;2023-04-04T08:10:28;54229.28;;;-136.87
14666;BMP280;7420;53.574;10.040;2023-04-04T08:12:53;54229.28;;;-136.87
14666;BMP280;7420;53.574;10.040;2023-04-04T08:15:19;54227.25;;;-136.87
14666;BMP280;7420;53.574;10.040;2023-04-04T08:17:44;54225.19;;;-136.87
14666;BMP280;7420;53.574;10.040;2023-04-04T08:20:10;54229.28;;;-136.87
14666;BMP280;7420;53.574;10.040;2023-04-04T08:22:36;54227.25;;;-136.87
14666;BMP280;7420;53.574;10.040;2023-04-04T08:25:05;54229.28;;;-136.87
14666;BMP280;7420;53.574;10.040;2023-04-04T08:27:30;54227.25;;;-136.87
14666;BMP280;7420;53.574;10.040;2023-04-04T08:29:56;54227.25;;;-136.87
14666;BMP280;7420;53.574;10.040;2023-04-04T08:32:22;54229.28;;;-136.87
14666;BMP280;7420;53.574;10.040;2023-04-04T08:34:48;54227.25;;;-136.87
14666;BMP280;7420;53.574;10.040;2023-04-04T08:37:14;54227.25;;;-136.87
14666;BMP280;7420;53.574;10.040;2023-04-04T08:39:39;54227.25;;;-136.87
14666;BMP280;7420;53.574;10.040;2023-04-04T08:42:06;54229.28;;;-136.87
14666;BMP280;7420;53.574;10.040;2023-04-04T08:44:33;54229.28;;;-136.87
14666;BMP280;7420;53.574;10.040;2023-04-04T08:47:01;54225.19;;;-136.87
14666;BMP280;7420;53.574;10.040;2023-04-04T08:49:32;54229.28;;;-136.87
14666;BMP280;7420;53.574;10.040;2023-04-04T08:52:01;54229.28;;;-136.87
14666;BMP280;7420;53.574;10.040;2023-04-04T08:54:27;54229.28;;;-136.87
14666;BMP280;7420;53.574;10.040;2023-04-04T08:56:54;54227.25;;;-136.87
14666;BMP280;7420;53.574;10.040;2023-04-04T08:59:22;54227.25;;;-136.87
14666;BMP280;7420;53.574;10.040;2023-04-04T09:01:48;54227.25;;;-136.87
14666;BMP280;7420;53.574;10.040;2023-04-04T09:04:16;54229.28;;;-136.87
14666;BMP280;7420;53.574;10.040;2023-04-04T09:06:42;54225.19;;;-136.87
14666;BMP280;7420;53.574;10.040;2023-04-04T09:09:08;54225.19;;;-136.87
14666;BMP280;7420;53.574;10.040;2023-04-04T09:11:34;54227.25;;;-136.87
14666;BMP280;7420;53.574;10.040;2023-04-04T09:14:01;54227.25;;;-136.87
14666;BMP280;7420;53.574;10.040;2023-04-04T09:16:28;54227.25;;;-136.87
14666;BMP280;7420;53.574;10.040;2023-04-04T09:18:54;54227.25;;;-136.87
14666;BMP280;7420;53.574;10.040;2023-04-04T09:21:19;54229.28;;;-136.87
14666;BMP280;7420;53.574;10.040;2023-04-04T09:23:45;54225.19;;;-136.87
14666;BMP280;7420;53.574;10.040;2023-04-04T09:26:10;54221.13;;;-136.87
14666;BMP280;7420;53.574;10.040;2023-04-04T09:28:37;54227.25;;;-136.87
14666;BMP280;7420;53.574;10.040;2023-04-04T09:31:06;54225.19;;;-136.87
14666;BMP280;7420;53.574;10.040;2023-04-04T09:33:32;54225.19;;;-136.87
14666;BMP280;7420;53.574;10.040;2023-04-04T09:36:01;54225.19;;;-136.87
14666;BMP280;7420;53.574;10.040;2023-04-04T09:38:28;54225.19;;;-136.87
14666;BMP280;7420;53.574;10.040;2023-04-04T09:40:54;54225.19;;;-136.87
14666;BMP280;7420;53.574;10.040;2023-04-04T09:43:20;54225.19;;;-136.87
14666;BMP280;7420;53.574;10.040;2023-04-04T09:45:47;54225.19;;;-136.87
14666;BMP280;7420;53.574;10.040;2023-04-04T09:48:24;54227.25;;;-136.87
14666;BMP280;7420;53.574;10.040;2023-04-04T09:50:50;54227.25;;;-136.87
14666;BMP280;7420;53.574;10.040;2023-04-04T09:53:16;54229.28;;;-136.87
14666;BMP280;7420;53.574;10.040;2023-04-04T09:55:53;54225.19;;;-136.87
14666;BMP280;7420;53.574;10.040;2023-04-04T09:58:29;54225.19;;;-136.87
14666;BMP280;7420;53.574;10.040;2023-04-04T10:00:58;54225.19;;;-136.87
14666;BMP280;7420;53.574;10.040;2023-04-04T10:03:25;54229.28;;;-136.87
14666;BMP280;7420;53.574;10.040;2023-04-04T10:06:09;54229.28;;;-136.87
14666;BMP280;7420;53.574;10.040;2023-04-04T10:08:38;54225.19;;;-136.87
14666;BMP280;7420;53.574;10.040;2023-04-04T10:11:04;54223.16;;;-136.87
14666;BMP280;7420;53.574;10.040;2023-04-04T10:13:32;54227.25;;;-136.87
14666;BMP280;7420;53.574;10.040;2023-04-04T10:16:00;54225.19;;;-136.87
14666;BMP280;7420;53.574;10.040;2023-04-04T10:18:28;54225.19;;;-136.87
14666;BMP280;7420;53.574;10.040;2023-04-04T10:20:56;54227.25;;;-136.87
14666;BMP280;7420;53.574;10.040;2023-04-04T10:23:23;54223.16;;;-136.87
14666;BMP280;7420;53.574;10.040;2023-04-04T10:25:51;54225.19;;;-136.87
14666;BMP280;7420;53.574;10.040;2023-04-04T10:28:17;54225.19;;;-136.87
14666;BMP280;7420;53.574;10.040;2023-04-04T10:30:48;54225.19;;;-136.87
14666;BMP280;7420;53.574;10.040;2023-04-04T10:33:40;54229.28;;;-136.87
14666;BMP280;7420;53.574;10.040;2023-04-04T10:36:10;54227.25;;;-136.87
14666;BMP280;7420;53.574;10.040;2023-04-04T10:38:44;54227.25;;;-136.87
14666;BMP280;7420;53.574;10.040;2023-04-04T10:41:13;54229.28;;;-136.87
14666;BMP280;7420;53.574;10.040;2023-04-04T10:43:40;54225.19;;;-136.87
14666;BMP280;7420;53.574;10.040;2023-04-04T10:46:10;54229.28;;;-136.87
14666;BMP280;7420;53.574;10.040;2023-04-04T10:48:38;54225.19;;;-136.87
14666;BMP280;7420;53.574;10.040;2023-04-04T10:51:04;54225.19;;;-136.87
14666;BMP280;7420;53.574;10.040;2023-04-04T10:53:31;54225.19;;;-136.87
14666;BMP280;7420;53.574;10.040;2023-04-04T10:55:57;54225.19;;;-136.87
14666;BMP280;7420;53.574;10.040;2023-04-04T10:58:23;54225.19;;;-136.87
14666;BMP280;7420;53.574;10.040;2023-04-04T11:00:50;54227.25;;;-136.87
14666;BMP280;7420;53.574;10.040;2023-04-04T11:03:16;54223.16;;;-136.87
14666;BMP280;7420;53.574;10.040;2023-04-04T11:05:42;54227.25;;;-136.87
14666;BMP280;7420;53.574;10.040;2023-04-04T11:08:26;54225.19;;;-136.87
14666;BMP280;7420;53.574;10.040;2023-04-04T11:10:53;54225.19;;;-136.87
14666;BMP280;7420;53.574;10.040;2023-04-04T11:16:06;54225.19;;;-136.87
14666;BMP280;7420;53.574;10.040;2023-04-04T11:21:05;54223.16;;;-136.87
14666;BMP280;7420;53.574;10.040;2023-04-04T11:26:11;54225.19;;;-136.87
14666;BMP280;7420;53.574;10.040;2023-04-04T11:33:57;54225.19;;;-136.87
14666;BMP280;7420;53.574;10.040;2023-04-04T11:39:31;54225.19;;;-136.87
14666;BMP280;7420;53.574;10.040;2023-04-04T11:42:04;54225.19;;;-136.87
14666;BMP280;7420;53.574;10.040;2023-04-04T11:47:24;54225.19;;;-136.87
14666;BMP280;7420;53.574;10.040;2023-04-04T11:49:51;54227.25;;;-136.87
14666;BMP280;7420;53.574;10.040;2023-04-04T11:52:17;54225.19;;;-136.87
14666;BMP280;7420;53.574;10.040;2023-04-04T11:54:44;54225.19;;;-136.87
14666;BMP280;7420;53.574;10.040;2023-04-04T11:57:11;54225.19;;;-136.87
14666;BMP280;7420;53.574;10.040;2023-04-04T11:59:44;54225.19;;;-136.87
14666;BMP280;7420;53.574;10.040;2023-04-04T12:02:11;54225.19;;;-136.87
14666;BMP280;7420;53.574;10.040;2023-04-04T12:04:40;54227.25;;;-136.87
14666;BMP280;7420;53.574;10.040;2023-04-04T12:07:10;54225.19;;;-136.87
14666;BMP280;7420;53.574;10.040;2023-04-04T12:09:37;54225.19;;;-136.87
14666;BMP280;7420;53.574;10.040;2023-04-04T12:12:03;54227.25;;;-136.87
14666;BMP280;7420;53.574;10.040;2023-04-04T12:14:31;54225.19;;;-136.87
14666;BMP280;7420;53.574;10.040;2023-04-04T12:16:57;54223.16;;;-136.87
14666;BMP280;7420;53.574;10.040;2023-04-04T12:19:24;54225.19;;;-136.87
14666;BMP280;7420;53.574;10.040;2023-04-04T12:21:51;54225.19;;;-136.87
14666;BMP280;7420;53.574;10.040;2023-04-04T12:24:17;54225.19;;;-136.87
14666;BMP280;7420;53.574;10.040;2023-04-04T12:26:46;54227.25;;;-136.87
14666;BMP280;7420;53.574;10.040;2023-04-04T12:29:14;54225.19;;;-136.87
14666;BMP280;7420;53.574;10.040;2023-04-04T12:31:43;54225.19;;;-136.87
14666;BMP280;7420;53.574;10.040;2023-04-04T12:34:16;54225.19;;;-136.87
14666;BMP280;7420;53.574;10.040;2023-04-04T12:36:43;54223.16;;;-136.87
14666;BMP280;7420;53.574;10.040;2023-04-04T12:39:10;54225.19;;;-136.87
14666;BMP280;7420;53.574;10.040;2023-04-04T12:42:07;54225.19;;;-136.87
14666;BMP280;7420;53.574;10.040;2023-04-04T12:44:36;54229.28;;;-136.87
14666;BMP280;7420;53.574;10.040;2023-04-04T12:47:04;54225.19;;;-136.87
14666;BMP280;7420;53.574;10.040;2023-04-04T12:49:31;54221.13;;;-136.87
14666;BMP280;7420;53.574;10.040;2023-04-04T12:51:57;54225.19;;;-136.87
14666;BMP280;7420;53.574;10.040;2023-04-04T12:54:34;54225.19;;;-136.87
14666;BMP280;7420;53.574;10.040;2023-04-04T12:57:04;54225.19;;;-136.87
14666;BMP280;7420;53.574;10.040;2023-04-04T12:59:34;54225.19;;;-136.87
14666;BMP280;7420;53.574;10.040;2023-04-04T13:02:06;54225.19;;;-136.87
14666;BMP280;7420;53.574;10.040;2023-04-04T13:04:33;54225.19;;;-136.87
14666;BMP280;7420;53.574;10.040;2023-04-04T13:06:59;54221.13;;;-136.87
14666;BMP280;7420;53.574;10.040;2023-04-04T13:09:26;54225.19;;;-136.87
14666;BMP280;7420;53.574;10.040;2023-04-04T13:12:05;54225.19;;;-136.87
14666;BMP280;7420;53.574;10.040;2023-04-04T13:17:20;54225.19;;;-136.87
14666;BMP280;7420;53.574;10.040;2023-04-04T13:19:45;54225.19;;;-136.87
14666;BMP280;7420;53.574;10.040;2023-04-04T13:22:10;54225.19;;;-136.87
14666;BMP280;7420;53.574;10.040;2023-04-04T13:24:36;54225.19;;;-136.87
14666;BMP280;7420;53.574;10.040;2023-04-04T13:27:01;54225.19;;;-136.87
14666;BMP280;7420;53.574;10.040;2023-04-04T13:29:26;54223.16;;;-136.87
14666;BMP280;7420;53.574;10.040;2023-04-04T13:34:37;54223.16;;;-136.87
14666;BMP280;7420;53.574;10.040;2023-04-04T13:37:03;54227.25;;;-136.87
14666;BMP280;7420;53.574;10.040;2023-04-04T13:39:28;54225.19;;;-136.87
14666;BMP280;7420;53.574;10.040;2023-04-04T13:41:54;54225.19;;;-136.87
14666;BMP280;7420;53.574;10.040;2023-04-04T13:44:21;54223.16;;;-136.87
14666;BMP280;7420;53.574;10.040;2023-04-04T13:46:49;54223.16;;;-136.87
14666;BMP280;7420;53.574;10.040;2023-04-04T13:49:14;54227.25;;;-136.87
14666;BMP280;7420;53.574;10.040;2023-04-04T13:51:40;54223.16;;;-136.87
14666;BMP280;7420;53.574;10.040;2023-04-04T13:54:05;54225.19;;;-136.87
14666;BMP280;7420;53.574;10.040;2023-04-04T13:56:31;54225.19;;;-136.87
14666;BMP280;7420;53.574;10.040;2023-04-04T13:58:56;54227.25;;;-136.87
14666;BMP280;7420;53.574;10.040;2023-04-04T14:01:21;54223.16;;;-136.87
14666;BMP280;7420;53.574;10.040;2023-04-04T14:03:47;54225.19;;;-136.87
14666;BMP280;7420;53.574;10.040;2023-04-04T14:06:12;54225.19;;;-136.87
14666;BMP280;7420;53.574;10.040;2023-04-04T14:08:38;54227.25;;;-136.87